createdAt,value
2018-01-26T00:08:57.256Z,1009.2
2018-01-26T00:19:47.575Z,1009.2
2018-01-26T00:31:06.438Z,1009.3
2018-01-26T00:42:04.592Z,1009.2
2018-01-26T00:53:23.677Z,1009.4
2018-01-26T01:04:13.355Z,1009.3
2018-01-26T01:15:05.036Z,1009.3
2018-01-26T01:36:12.790Z,1009.5
2018-01-26T01:47:39.706Z,1009.4
2018-01-26T01:58:25.660Z,1009.4
2018-01-26T02:09:10.884Z,1009.1
2018-01-26T02:20:00.662Z,1009.6
2018-01-26T02:30:46.139Z,1009.5
2018-01-26T02:41:35.755Z,1009.6
2018-01-26T02:51:57.812Z,1009.6
2018-01-26T03:03:26.402Z,1009.6
2018-01-26T03:14:36.560Z,1009.6
2018-01-26T03:25:23.935Z,1009.7
2018-01-26T03:46:59.343Z,1009.7
2018-01-26T03:57:13.033Z,1009.7
2018-01-26T04:07:27.275Z,1009.7
2018-01-26T04:17:41.489Z,1009.8
2018-01-26T04:27:54.681Z,1009.9
2018-01-26T04:38:09.472Z,1010.0
2018-01-26T04:48:23.651Z,1010.1
2018-01-26T04:59:08.408Z,1010.4
2018-01-26T05:09:21.854Z,1010.6
2018-01-26T05:19:35.292Z,1010.6
2018-01-26T05:29:49.867Z,1010.6
2018-01-26T05:40:04.052Z,1010.8
2018-01-26T05:50:17.355Z,1010.6
2018-01-26T06:00:31.220Z,1010.8
2018-01-26T06:11:10.658Z,1011.0
2018-01-26T06:21:24.591Z,1011.1
2018-01-26T06:31:36.814Z,1011.1
2018-01-26T06:41:50.996Z,1011.2
2018-01-26T06:52:05.260Z,1011.4
2018-01-26T07:02:19.316Z,1011.5
2018-01-26T07:12:33.315Z,1011.5
2018-01-26T07:22:47.275Z,1011.6
2018-01-26T07:33:00.929Z,1011.9
2018-01-26T07:43:46.217Z,1012.1
2018-01-26T07:53:59.732Z,1012.3
2018-01-26T08:04:14.019Z,1012.5
2018-01-26T08:14:27.982Z,1012.5
2018-01-26T08:24:42.200Z,1012.8
2018-01-26T08:34:55.463Z,1012.8
2018-01-26T08:45:07.307Z,1012.9
2018-01-26T08:55:20.764Z,1013.0
2018-01-26T09:05:34.067Z,1013.1
2018-01-26T09:15:47.412Z,1013.3
2018-01-26T09:26:02.525Z,1013.4
2018-01-26T09:36:15.667Z,1013.5
2018-01-26T09:46:28.618Z,1013.6
2018-01-26T09:56:42.154Z,1013.7
2018-01-26T10:06:56.138Z,1013.9
2018-01-26T10:17:09.937Z,1013.9
2018-01-26T10:27:23.950Z,1014.0
2018-01-26T10:38:08.515Z,1014.0
2018-01-26T10:48:53.305Z,1014.1
2018-01-26T10:59:07.140Z,1014.1
2018-01-26T11:09:21.126Z,1014.2
2018-01-26T11:19:35.513Z,1014.2
2018-01-26T11:29:50.793Z,1014.4
2018-01-26T11:40:06.802Z,1014.4
2018-01-26T11:50:26.838Z,1014.6
2018-01-26T12:00:47.680Z,1014.5
2018-01-26T12:11:02.807Z,1014.6
2018-01-26T12:21:17.011Z,1014.8
2018-01-26T12:31:31.104Z,1015.0
2018-01-26T12:42:16.499Z,1014.9
2018-01-26T12:52:30.858Z,1014.7
2018-01-26T13:02:45.049Z,1014.7
2018-01-26T13:12:59.083Z,1014.8
2018-01-26T13:23:21.895Z,1014.7
2018-01-26T13:33:37.205Z,1014.7
2018-01-26T13:43:50.905Z,1015.0
2018-01-26T13:54:05.258Z,1015.2
2018-01-26T14:04:50.788Z,1015.3
2018-01-26T14:15:42.357Z,1015.4
2018-01-26T14:26:24.040Z,1015.5
2018-01-26T14:38:44.212Z,1015.7
2018-01-26T14:52:49.602Z,1015.9
2018-01-26T15:03:03.364Z,1016.2
2018-01-26T15:13:17.223Z,1016.4
2018-01-26T15:23:30.687Z,1016.6
2018-01-26T15:33:44.667Z,1016.7
2018-01-26T15:43:58.026Z,1016.9
2018-01-26T15:54:12.213Z,1016.9
2018-01-26T16:04:26.351Z,1017.1
2018-01-26T16:14:39.580Z,1017.1
2018-01-26T16:24:52.989Z,1017.3
2018-01-26T16:35:07.120Z,1017.4
2018-01-26T16:45:21.201Z,1017.7
2018-01-26T16:55:34.546Z,1017.8
2018-01-26T17:05:47.941Z,1018.1
2018-01-26T17:26:15.911Z,1018.3
2018-01-26T17:36:29.575Z,1018.4
2018-01-26T17:46:43.897Z,1018.5
2018-01-26T17:57:29.403Z,1018.6
2018-01-26T18:08:14.335Z,1018.7
2018-01-26T18:18:59.940Z,1018.7
2018-01-26T18:29:44.648Z,1018.8
2018-01-26T18:40:29.341Z,1019.1
2018-01-26T18:50:42.965Z,1019.3
2018-01-26T19:01:28.176Z,1019.5
2018-01-26T19:24:24.039Z,1019.8
2018-01-26T19:35:20.658Z,1019.9
2018-01-26T19:48:10.418Z,1020.0
2018-01-26T19:59:15.182Z,1020.1
2018-01-26T20:21:00.577Z,1020.4
2018-01-26T20:31:14.857Z,1020.5
2018-01-26T20:41:31.011Z,1020.7
2018-01-26T20:51:44.990Z,1020.8
2018-01-26T21:01:58.619Z,1021.0
2018-01-26T21:12:12.404Z,1021.1
2018-01-26T21:22:25.484Z,1021.1
2018-01-26T21:32:38.805Z,1021.3
2018-01-26T21:43:23.463Z,1021.3
2018-01-26T21:54:12.820Z,1021.4
2018-01-26T22:04:26.687Z,1021.4
2018-01-26T22:14:55.033Z,1021.5
2018-01-26T22:25:08.969Z,1021.6
2018-01-26T22:35:53.480Z,1021.9
2018-01-26T22:46:07.156Z,1022.0
2018-01-26T22:56:51.680Z,1022.3
2018-01-26T23:07:36.438Z,1022.4
2018-01-26T23:17:51.316Z,1022.5
2018-01-26T23:28:05.248Z,1022.4
2018-01-26T23:38:19.591Z,1022.5
2018-01-26T23:48:33.624Z,1022.5
2018-01-26T23:58:47.509Z,1022.6
